Time;durP1;ratioP1;P1;durP2;ratioP2;P2;SDS_P1;SDS_P2;PMS_P1;PMS_P2;Temp;Humidity;BMP_temperature;BMP_pressure;BME280_temperature;BME280_humidity;BME280_pressure;Samples;Min_cycle;Max_cycle;Signal;HPM_P1;HPM_P2
2022/10/03 00:01:42;;;;;;;8.48;2.50;;;;;;;;;;4949961;28;20024;-82
2022/10/03 00:04:14;;;;;;;16.52;2.90;;;;;;;;;;4940754;29;20446;-81
2022/10/03 00:06:49;;;;;;;15.45;2.40;;;;;;;;;;4966945;28;20091;-80
2022/10/03 00:09:35;;;;;;;17.85;2.80;;;;;;;;;;4966630;28;20041;-82
2022/10/03 00:12:11;;;;;;;21.50;3.53;;;;;;;;;;4947823;28;20055;-82
2022/10/03 00:15:00;;;;;;;13.00;3.10;;;;;;;;;;4967796;28;20026;-82
2022/10/03 00:17:39;;;;;;;19.15;2.90;;;;;;;;;;4952342;28;20565;-82
2022/10/03 00:20:14;;;;;;;15.43;3.47;;;;;;;;;;4967567;28;20023;-80
2022/10/03 00:22:44;;;;;;;14.68;2.78;;;;;;;;;;4973644;28;20418;-83
2022/10/03 00:25:23;;;;;;;15.88;3.20;;;;;;;;;;4962317;28;20193;-81
2022/10/03 00:27:55;;;;;;;13.65;2.85;;;;;;;;;;4972316;28;20030;-81
2022/10/03 00:30:24;;;;;;;16.38;3.53;;;;;;;;;;4960244;28;20035;-81
2022/10/03 00:33:06;;;;;;;19.70;3.20;;;;;;;;;;4955297;28;20389;-81
2022/10/03 00:35:32;;;;;;;20.83;3.17;;;;;;;;;;4959377;28;20050;-80
2022/10/03 00:38:16;;;;;;;17.63;3.38;;;;;;;;;;4969950;28;20027;-81
2022/10/03 00:40:55;;;;;;;17.45;3.03;;;;;;;;;;4961844;28;20031;-81
2022/10/03 00:43:27;;;;;;;16.98;3.17;;;;;;;;;;4948811;28;20024;-81
2022/10/03 00:46:09;;;;;;;22.08;3.10;;;;;;;;;;4965738;28;20551;-81
2022/10/03 00:48:54;;;;;;;12.88;3.42;;;;;;;;;;4946373;28;20023;-81
2022/10/03 00:51:20;;;;;;;18.45;2.97;;;;;;;;;;4962882;28;20034;-81
2022/10/03 00:53:46;;;;;;;16.80;3.30;;;;;;;;;;4947911;28;20031;-81
2022/10/03 00:56:21;;;;;;;17.73;3.10;;;;;;;;;;4967101;28;20031;-81
2022/10/03 00:59:01;;;;;;;18.45;3.35;;;;;;;;;;4966515;28;20031;-82
2022/10/03 01:01:27;;;;;;;14.73;2.92;;;;;;;;;;4956526;28;20027;-80
2022/10/03 01:03:53;;;;;;;13.82;2.97;;;;;;;;;;4956000;28;20079;-81
2022/10/03 01:06:35;;;;;;;21.55;3.70;;;;;;;;;;4970863;28;20453;-81
2022/10/03 01:09:02;;;;;;;13.30;3.28;;;;;;;;;;4950196;28;20082;-81
2022/10/03 01:11:35;;;;;;;12.25;3.90;;;;;;;;;;4956628;28;20557;-80
2022/10/03 01:14:01;;;;;;;14.20;3.15;;;;;;;;;;4956805;28;20386;-83
2022/10/03 01:16:45;;;;;;;11.50;3.08;;;;;;;;;;4971639;28;20024;-82
2022/10/03 01:19:39;;;;;;;19.00;3.50;;;;;;;;;;4953403;28;20035;-80
2022/10/03 01:22:11;;;;;;;19.10;3.45;;;;;;;;;;4955756;28;20034;-82
2022/10/03 01:24:43;;;;;;;18.77;3.63;;;;;;;;;;4952251;28;20059;-83
2022/10/03 01:27:15;;;;;;;14.07;2.33;;;;;;;;;;4962653;28;20094;-80
2022/10/03 01:32:52;;;;;;;16.25;3.30;;;;;;;;;;4975348;28;20039;-82
2022/10/03 01:35:28;;;;;;;15.60;2.92;;;;;;;;;;4952802;28;20098;-82
2022/10/03 01:38:14;;;;;;;26.15;3.42;;;;;;;;;;4964649;28;20036;-82
2022/10/03 01:40:47;;;;;;;14.85;2.90;;;;;;;;;;4968611;28;20019;-83
2022/10/03 01:43:22;;;;;;;20.33;2.95;;;;;;;;;;4945492;28;20056;-82
2022/10/03 01:45:48;;;;;;;16.45;3.13;;;;;;;;;;4959365;28;20031;-81
2022/10/03 01:48:21;;;;;;;17.60;3.53;;;;;;;;;;4958554;28;20023;-80
2022/10/03 01:50:56;;;;;;;16.80;3.30;;;;;;;;;;4955266;28;20032;-81
2022/10/03 01:53:25;;;;;;;20.48;3.35;;;;;;;;;;4941571;28;20051;-81
2022/10/03 01:55:54;;;;;;;18.27;3.83;;;;;;;;;;4969033;28;20030;-82
2022/10/03 01:58:30;;;;;;;15.52;2.28;;;;;;;;;;4986056;28;20070;-83
2022/10/03 02:01:19;;;;;;;10.50;2.15;;;;;;;;;;4976752;28;20086;-82
2022/10/03 02:03:49;;;;;;;15.68;3.45;;;;;;;;;;4965448;28;20099;-82
2022/10/03 02:06:30;;;;;;;19.58;2.97;;;;;;;;;;4971767;28;20027;-83
2022/10/03 02:09:14;;;;;;;26.17;3.10;;;;;;;;;;4957805;28;20031;-82
2022/10/03 02:11:43;;;;;;;20.20;4.03;;;;;;;;;;4950827;28;20032;-81
2022/10/03 02:14:18;;;;;;;16.58;3.85;;;;;;;;;;4942458;28;20083;-82
2022/10/03 02:16:45;;;;;;;17.25;3.25;;;;;;;;;;4964056;28;20035;-80
2022/10/03 02:19:15;;;;;;;16.63;3.67;;;;;;;;;;4949276;28;20503;-81
2022/10/03 02:21:54;;;;;;;19.45;3.00;;;;;;;;;;4949163;28;20393;-82
2022/10/03 02:24:29;;;;;;;15.63;2.85;;;;;;;;;;4945051;28;20031;-82
2022/10/03 02:27:06;;;;;;;15.23;3.15;;;;;;;;;;4948540;28;20035;-82
2022/10/03 02:29:38;;;;;;;17.67;3.58;;;;;;;;;;4961917;28;20027;-81
2022/10/03 02:32:05;;;;;;;20.65;3.53;;;;;;;;;;4949243;28;20038;-83
2022/10/03 02:34:51;;;;;;;16.90;3.67;;;;;;;;;;4963425;28;20075;-83
2022/10/03 02:37:26;;;;;;;15.10;3.42;;;;;;;;;;4991822;28;20054;-82
2022/10/03 02:40:11;;;;;;;19.55;3.75;;;;;;;;;;4984346;28;20040;-83
2022/10/03 02:42:37;;;;;;;22.67;3.83;;;;;;;;;;4982165;28;20031;-83
2022/10/03 02:45:06;;;;;;;15.10;4.25;;;;;;;;;;4968552;28;20023;-83
2022/10/03 02:47:38;;;;;;;17.75;4.43;;;;;;;;;;4987835;28;20027;-82
2022/10/03 02:50:23;;;;;;;13.02;3.75;;;;;;;;;;4971482;28;20023;-82
2022/10/03 02:52:49;;;;;;;17.48;4.40;;;;;;;;;;4960545;28;20027;-82
2022/10/03 02:55:44;;;;;;;17.73;3.75;;;;;;;;;;4964938;28;20041;-82
2022/10/03 02:58:25;;;;;;;14.73;3.97;;;;;;;;;;4906656;29;20108;-82
2022/10/03 03:01:00;;;;;;;19.55;4.38;;;;;;;;;;4971316;28;20037;-83
2022/10/03 03:03:29;;;;;;;18.83;4.55;;;;;;;;;;4953917;28;20024;-83
2022/10/03 03:06:16;;;;;;;18.17;4.80;;;;;;;;;;4973754;28;20026;-82
2022/10/03 03:09:05;;;;;;;14.82;4.63;;;;;;;;;;4968854;28;20023;-83
2022/10/03 03:11:41;;;;;;;17.25;4.82;;;;;;;;;;4953200;28;20032;-83
2022/10/03 03:14:19;;;;;;;19.02;5.57;;;;;;;;;;4969273;28;20046;-83
2022/10/03 03:16:56;;;;;;;19.45;4.57;;;;;;;;;;4982895;28;20024;-83
2022/10/03 03:19:37;;;;;;;20.90;5.75;;;;;;;;;;4978147;28;20494;-81
2022/10/03 03:22:24;;;;;;;13.93;4.35;;;;;;;;;;4965577;28;20034;-82
2022/10/03 03:24:50;;;;;;;12.80;4.28;;;;;;;;;;4950805;28;20034;-81
2022/10/03 03:27:26;;;;;;;13.82;4.32;;;;;;;;;;4973149;28;20027;-81
2022/10/03 03:29:52;;;;;;;16.83;4.50;;;;;;;;;;4964523;28;20053;-81
2022/10/03 03:32:21;;;;;;;18.15;4.22;;;;;;;;;;4961268;29;20027;-82
2022/10/03 03:34:59;;;;;;;20.23;4.53;;;;;;;;;;4964939;28;20051;-81
2022/10/03 03:37:28;;;;;;;23.23;4.88;;;;;;;;;;4972553;28;20287;-81
2022/10/03 03:40:06;;;;;;;20.38;5.18;;;;;;;;;;4963651;28;20028;-81
2022/10/03 03:42:53;;;;;;;16.35;4.70;;;;;;;;;;4951947;28;20028;-81
2022/10/03 03:45:18;;;;;;;13.85;4.35;;;;;;;;;;4955427;28;20111;-82
2022/10/03 03:47:53;;;;;;;18.08;4.43;;;;;;;;;;4971747;28;20505;-82
2022/10/03 03:50:27;;;;;;;10.05;4.03;;;;;;;;;;4955479;28;20466;-81
2022/10/03 03:52:56;;;;;;;16.17;4.18;;;;;;;;;;4954027;28;20062;-81
2022/10/03 03:55:47;;;;;;;13.60;4.20;;;;;;;;;;4960008;28;20031;-81
2022/10/03 03:58:32;;;;;;;11.63;3.30;;;;;;;;;;4972951;28;20143;-81
2022/10/03 04:00:58;;;;;;;17.45;4.00;;;;;;;;;;4971832;28;20046;-81
2022/10/03 04:03:30;;;;;;;16.23;4.20;;;;;;;;;;4957823;28;20034;-81
2022/10/03 04:06:02;;;;;;;19.73;4.35;;;;;;;;;;4977351;28;20023;-81
2022/10/03 04:08:34;;;;;;;15.25;3.67;;;;;;;;;;4971185;28;20020;-82
2022/10/03 04:11:06;;;;;;;11.13;3.40;;;;;;;;;;4965370;28;20031;-82
2022/10/03 04:13:51;;;;;;;11.55;3.63;;;;;;;;;;4947978;28;20486;-81
2022/10/03 04:19:30;;;;;;;17.55;3.97;;;;;;;;;;4957459;28;20025;-82
2022/10/03 04:21:56;;;;;;;17.65;4.72;;;;;;;;;;4954856;28;20027;-82
2022/10/03 04:24:42;;;;;;;19.02;5.32;;;;;;;;;;4951657;28;20412;-82
2022/10/03 04:27:21;;;;;;;16.60;4.93;;;;;;;;;;4954957;28;20026;-81
2022/10/03 04:29:47;;;;;;;21.60;5.50;;;;;;;;;;4970504;28;20043;-82
2022/10/03 04:32:17;;;;;;;20.80;4.60;;;;;;;;;;4951869;28;20031;-82
2022/10/03 04:34:43;;;;;;;12.77;4.38;;;;;;;;;;4951470;28;20410;-82
2022/10/03 04:37:27;;;;;;;18.67;5.00;;;;;;;;;;4974854;28;20485;-82
2022/10/03 04:40:12;;;;;;;13.13;5.25;;;;;;;;;;4959973;28;20028;-82
2022/10/03 04:42:52;;;;;;;16.90;4.82;;;;;;;;;;4953548;28;20118;-82
2022/10/03 04:45:36;;;;;;;20.55;4.10;;;;;;;;;;4956940;28;20385;-82
2022/10/03 04:48:10;;;;;;;18.92;4.53;;;;;;;;;;4968127;28;20437;-82
2022/10/03 04:50:39;;;;;;;19.48;5.38;;;;;;;;;;4960423;28;20403;-82
2022/10/03 04:53:05;;;;;;;16.95;5.20;;;;;;;;;;4953870;28;20071;-81
2022/10/03 04:55:32;;;;;;;14.15;4.75;;;;;;;;;;4961125;28;20027;-82
2022/10/03 04:58:14;;;;;;;29.63;6.05;;;;;;;;;;4970229;28;20023;-81
2022/10/03 05:01:05;;;;;;;18.58;5.40;;;;;;;;;;4966770;28;20027;-82
2022/10/03 05:03:42;;;;;;;27.48;6.70;;;;;;;;;;4956034;28;20027;-83
2022/10/03 05:06:27;;;;;;;19.65;6.07;;;;;;;;;;4979774;28;20027;-83
2022/10/03 05:09:11;;;;;;;18.90;5.53;;;;;;;;;;4980329;28;20019;-83
2022/10/03 05:12:01;;;;;;;16.90;5.40;;;;;;;;;;4966989;28;20015;-83
2022/10/03 05:26:48;;;;;;;23.48;6.82;;;;;;;;;;4979867;28;20488;-78
2022/10/03 05:32:37;;;;;;;18.35;6.57;;;;;;;;;;4964378;28;20046;-78
2022/10/03 05:38:29;;;;;;;17.77;4.85;;;;;;;;;;4948663;28;20114;-77
2022/10/03 05:41:22;;;;;;;17.20;5.40;;;;;;;;;;4961878;28;20405;-78
2022/10/03 05:49:58;;;;;;;;;;;;;;;;;;;;;
2022/10/03 06:18:41;;;;;;;15.50;5.13;;;;;;;;;;5002031;28;20049;-79
2022/10/03 06:21:26;;;;;;;12.20;3.50;;;;;;;;;;4992146;28;20024;-78
2022/10/03 06:24:29;;;;;;;11.85;4.20;;;;;;;;;;4967735;28;20023;-78
2022/10/03 06:27:17;;;;;;;12.32;3.70;;;;;;;;;;5002570;23;20033;-82
2022/10/03 06:29:56;;;;;;;17.05;4.55;;;;;;;;;;4974212;28;20043;-83
2022/10/03 06:32:27;;;;;;;15.40;3.70;;;;;;;;;;4981522;28;20063;-82
2022/10/03 06:35:11;;;;;;;11.95;3.53;;;;;;;;;;4956848;28;20023;-85
2022/10/03 06:38:07;;;;;;;16.98;4.38;;;;;;;;;;4985955;28;20031;-84
2022/10/03 06:40:51;;;;;;;15.93;3.67;;;;;;;;;;4965127;28;20034;-83
2022/10/03 06:43:20;;;;;;;21.08;5.57;;;;;;;;;;4961692;28;20026;-83
2022/10/03 06:46:00;;;;;;;10.48;4.03;;;;;;;;;;4968832;28;20023;-83
2022/10/03 06:48:37;;;;;;;12.05;4.18;;;;;;;;;;4951096;28;20113;-85
2022/10/03 06:51:09;;;;;;;10.85;4.00;;;;;;;;;;4957340;28;20027;-85
2022/10/03 06:53:56;;;;;;;14.98;4.18;;;;;;;;;;4954616;28;20019;-86
2022/10/03 06:56:42;;;;;;;10.30;4.57;;;;;;;;;;4978418;28;20016;-87
2022/10/03 06:59:08;;;;;;;19.38;4.72;;;;;;;;;;4974833;28;20035;-85
2022/10/03 07:01:37;;;;;;;15.50;4.35;;;;;;;;;;4977870;28;20035;-83
2022/10/03 07:04:03;;;;;;;12.25;3.92;;;;;;;;;;4955015;28;20030;-83
2022/10/03 07:06:48;;;;;;;11.23;3.45;;;;;;;;;;4971762;28;20030;-82
2022/10/03 07:09:34;;;;;;;15.00;4.18;;;;;;;;;;4962483;28;20023;-79
2022/10/03 07:11:59;;;;;;;12.30;4.20;;;;;;;;;;4969914;28;20141;-82
2022/10/03 07:14:29;;;;;;;9.18;4.13;;;;;;;;;;4979335;28;20119;-84
2022/10/03 07:17:14;;;;;;;12.60;3.47;;;;;;;;;;4948882;29;20023;-83
2022/10/03 07:19:56;;;;;;;14.50;4.70;;;;;;;;;;4947954;28;20027;-84
2022/10/03 07:22:25;;;;;;;13.73;4.68;;;;;;;;;;4961168;29;20054;-82
2022/10/03 07:25:10;;;;;;;11.52;3.80;;;;;;;;;;4948467;28;20023;-83
2022/10/03 07:27:54;;;;;;;16.35;4.80;;;;;;;;;;4966574;28;20033;-79
2022/10/03 07:30:24;;;;;;;13.10;4.40;;;;;;;;;;4966110;28;20058;-84
2022/10/03 07:33:26;;;;;;;11.13;3.58;;;;;;;;;;4945844;29;20059;-84
2022/10/03 07:39:09;;;;;;;14.38;4.10;;;;;;;;;;4975397;28;20030;-84
2022/10/03 07:41:44;;;;;;;19.35;4.35;;;;;;;;;;4969867;28;20027;-83
2022/10/03 07:44:29;;;;;;;18.33;3.45;;;;;;;;;;4967058;28;20025;-82
2022/10/03 07:47:24;;;;;;;14.45;3.47;;;;;;;;;;4947952;28;20034;-84
2022/10/03 07:50:09;;;;;;;13.60;3.10;;;;;;;;;;4973181;28;20027;-83
2022/10/03 07:53:47;;;;;;;;;;;;;;;;;;;;;
2022/10/03 07:55:54;;;;;;;11.48;3.28;;;;;;;;;;4959912;28;20027;-82
2022/10/03 07:59:25;;;;;;;13.30;3.65;;;;;;;;;;4966270;28;20034;-84
2022/10/03 08:02:17;;;;;;;8.27;2.60;;;;;;;;;;4958370;28;20027;-84
2022/10/03 08:08:08;;;;;;;7.05;2.42;;;;;;;;;;4980789;28;20560;-83
2022/10/03 08:10:52;;;;;;;10.73;3.25;;;;;;;;;;4954727;29;20058;-84
2022/10/03 08:13:21;;;;;;;10.68;2.88;;;;;;;;;;4945159;29;20087;-83
2022/10/03 08:15:47;;;;;;;13.40;3.03;;;;;;;;;;4947768;29;20041;-82
2022/10/03 08:18:43;;;;;;;11.48;2.90;;;;;;;;;;4956985;28;20019;-83
2022/10/03 08:21:19;;;;;;;7.93;3.22;;;;;;;;;;4891069;29;20041;-83
2022/10/03 08:23:51;;;;;;;9.35;3.15;;;;;;;;;;4964091;29;20430;-81
2022/10/03 08:26:29;;;;;;;7.72;2.70;;;;;;;;;;4974386;28;20054;-79
2022/10/03 08:29:01;;;;;;;12.63;3.25;;;;;;;;;;4954284;28;20086;-79
2022/10/03 08:31:36;;;;;;;12.48;3.50;;;;;;;;;;4945861;29;20031;-81
2022/10/03 08:34:03;;;;;;;12.80;3.25;;;;;;;;;;4960784;28;20062;-80
2022/10/03 08:36:55;;;;;;;14.02;3.40;;;;;;;;;;4970278;28;20027;-78
2022/10/03 08:39:28;;;;;;;11.65;3.22;;;;;;;;;;4939599;28;20045;-79
2022/10/03 08:42:00;;;;;;;10.13;2.83;;;;;;;;;;4951444;28;20023;-79
2022/10/03 08:44:29;;;;;;;8.68;2.97;;;;;;;;;;4938608;29;20024;-77
2022/10/03 08:47:14;;;;;;;8.93;3.22;;;;;;;;;;4964201;28;20073;-80
2022/10/03 08:49:58;;;;;;;19.60;3.30;;;;;;;;;;4958117;28;20034;-79
2022/10/03 08:52:34;;;;;;;10.73;3.55;;;;;;;;;;4968438;28;20482;-79
2022/10/03 08:55:19;;;;;;;16.40;3.80;;;;;;;;;;4963200;28;20031;-80
2022/10/03 08:57:53;;;;;;;12.55;2.72;;;;;;;;;;4963224;29;20031;-80
2022/10/03 09:00:21;;;;;;;11.00;3.10;;;;;;;;;;4967245;28;20027;-80
2022/10/03 09:03:14;;;;;;;13.27;3.17;;;;;;;;;;4944609;29;20031;-78
2022/10/03 09:05:57;;;;;;;11.50;3.03;;;;;;;;;;4967468;28;20104;-79
2022/10/03 09:08:42;;;;;;;9.45;2.53;;;;;;;;;;4967486;28;20023;-78
2022/10/03 09:11:08;;;;;;;12.07;2.83;;;;;;;;;;4957337;28;20027;-78
2022/10/03 09:13:52;;;;;;;6.85;2.45;;;;;;;;;;4955297;29;20045;-77
2022/10/03 09:16:37;;;;;;;8.82;3.30;;;;;;;;;;4959630;29;20035;-77
2022/10/03 09:19:15;;;;;;;11.43;3.15;;;;;;;;;;4955841;28;20028;-79
2022/10/03 09:21:44;;;;;;;6.70;2.38;;;;;;;;;;4956563;29;20031;-78
2022/10/03 09:24:17;;;;;;;16.35;3.33;;;;;;;;;;4957216;29;20023;-79
2022/10/03 09:26:49;;;;;;;9.88;2.50;;;;;;;;;;4958553;29;20042;-80
2022/10/03 09:29:18;;;;;;;8.98;3.05;;;;;;;;;;4936988;29;20372;-78
2022/10/03 09:31:44;;;;;;;11.00;2.92;;;;;;;;;;4935442;29;20079;-79
2022/10/03 09:34:19;;;;;;;9.82;2.78;;;;;;;;;;4950621;29;20031;-79
2022/10/03 09:36:48;;;;;;;9.15;2.75;;;;;;;;;;4940689;28;20027;-79
2022/10/03 09:39:33;;;;;;;13.30;3.95;;;;;;;;;;4975480;29;20449;-79
2022/10/03 09:42:23;;;;;;;11.10;2.53;;;;;;;;;;4970029;28;20027;-81
2022/10/03 09:45:09;;;;;;;10.95;2.80;;;;;;;;;;4965173;29;20078;-79
2022/10/03 09:47:47;;;;;;;10.00;3.40;;;;;;;;;;4965935;29;20169;-79
2022/10/03 09:50:18;;;;;;;17.27;2.60;;;;;;;;;;4952787;29;20087;-79
2022/10/03 09:53:01;;;;;;;12.98;2.60;;;;;;;;;;4955511;28;20019;-80
2022/10/03 09:55:46;;;;;;;8.38;2.22;;;;;;;;;;4970449;28;20031;-78
2022/10/03 09:58:24;;;;;;;5.70;2.20;;;;;;;;;;4961310;28;20039;-79
2022/10/03 10:01:03;;;;;;;11.82;2.67;;;;;;;;;;4946624;28;20102;-79
2022/10/03 10:03:43;;;;;;;9.45;2.13;;;;;;;;;;4976622;28;20030;-79
2022/10/03 10:06:21;;;;;;;7.97;2.22;;;;;;;;;;4964964;28;20034;-78
2022/10/03 10:08:52;;;;;;;9.40;2.20;;;;;;;;;;4956773;28;20050;-79
2022/10/03 10:11:24;;;;;;;10.00;2.90;;;;;;;;;;4957073;29;20102;-79
2022/10/03 10:14:00;;;;;;;15.20;2.95;;;;;;;;;;4958414;29;20035;-81
2022/10/03 10:19:15;;;;;;;10.23;3.20;;;;;;;;;;5068320;23;20046;-78
2022/10/03 10:21:56;;;;;;;16.08;3.28;;;;;;;;;;4974556;28;20026;-80
2022/10/03 10:24:22;;;;;;;11.98;2.70;;;;;;;;;;4975967;28;20109;-79
2022/10/03 10:26:48;;;;;;;14.55;2.30;;;;;;;;;;4976680;28;20029;-79
2022/10/03 10:29:33;;;;;;;15.05;3.22;;;;;;;;;;4964937;28;20102;-78
2022/10/03 10:32:14;;;;;;;12.65;2.70;;;;;;;;;;4960181;28;20066;-80
2022/10/03 10:34:49;;;;;;;12.32;2.63;;;;;;;;;;4963268;28;20117;-79
2022/10/03 10:37:29;;;;;;;10.02;3.08;;;;;;;;;;4953427;28;20454;-78
2022/10/03 10:40:18;;;;;;;9.68;2.53;;;;;;;;;;4968130;28;20401;-78
2022/10/03 10:42:47;;;;;;;8.30;2.00;;;;;;;;;;4953857;28;20161;-78
2022/10/03 10:45:31;;;;;;;11.57;2.33;;;;;;;;;;4952710;28;20549;-77
2022/10/03 10:48:16;;;;;;;15.43;2.58;;;;;;;;;;4952214;28;20042;-78
2022/10/03 10:50:49;;;;;;;12.55;2.65;;;;;;;;;;4951302;28;20023;-77
2022/10/03 10:53:36;;;;;;;6.53;2.35;;;;;;;;;;4955723;28;20028;-79
2022/10/03 10:56:41;;;;;;;13.55;2.53;;;;;;;;;;4957089;28;20019;-79
2022/10/03 10:59:26;;;;;;;13.40;2.28;;;;;;;;;;4882535;29;20025;-79
2022/10/03 11:01:52;;;;;;;8.50;2.22;;;;;;;;;;4876977;29;20043;-78
2022/10/03 11:04:37;;;;;;;12.38;2.50;;;;;;;;;;4925438;28;20043;-78
2022/10/03 11:07:15;;;;;;;7.97;2.25;;;;;;;;;;4956821;28;20027;-75
2022/10/03 11:10:00;;;;;;;10.38;2.72;;;;;;;;;;4968677;28;20030;-77
2022/10/03 11:12:26;;;;;;;12.57;2.55;;;;;;;;;;4957932;28;20102;-79
2022/10/03 11:14:58;;;;;;;8.55;2.72;;;;;;;;;;4957546;28;20438;-79
2022/10/03 11:17:33;;;;;;;9.07;1.90;;;;;;;;;;4955485;28;20066;-78
2022/10/03 11:20:18;;;;;;;7.63;2.25;;;;;;;;;;4955968;28;20042;-78
2022/10/03 11:23:02;;;;;;;8.57;2.33;;;;;;;;;;4957450;28;20027;-77
2022/10/03 11:25:34;;;;;;;10.88;1.95;;;;;;;;;;4955257;28;20502;-78
2022/10/03 11:28:07;;;;;;;8.13;1.90;;;;;;;;;;4959509;28;20034;-78
2022/10/03 11:30:49;;;;;;;11.60;2.20;;;;;;;;;;4963940;28;20027;-79
2022/10/03 11:33:21;;;;;;;5.78;1.60;;;;;;;;;;4954120;28;20039;-77
2022/10/03 11:36:06;;;;;;;10.75;2.30;;;;;;;;;;4956487;28;20027;-79
2022/10/03 11:38:34;;;;;;;10.00;2.65;;;;;;;;;;4961843;28;20019;-78
2022/10/03 11:41:19;;;;;;;10.00;2.28;;;;;;;;;;4960550;28;20442;-78
2022/10/03 11:43:56;;;;;;;9.73;1.98;;;;;;;;;;4954114;28;20042;-78
2022/10/03 11:46:25;;;;;;;12.35;2.47;;;;;;;;;;4967930;28;20437;-78
2022/10/03 11:48:55;;;;;;;8.02;2.38;;;;;;;;;;4954360;28;20026;-78
2022/10/03 11:51:30;;;;;;;12.27;2.35;;;;;;;;;;4967598;28;20086;-78
2022/10/03 11:54:01;;;;;;;11.57;2.47;;;;;;;;;;4957398;28;20058;-79
2022/10/03 11:56:41;;;;;;;9.33;2.37;;;;;;;;;;4952413;28;20027;-77
2022/10/03 11:59:17;;;;;;;12.05;2.53;;;;;;;;;;4953234;28;20321;-77
2022/10/03 12:02:02;;;;;;;9.35;2.22;;;;;;;;;;4977832;28;20015;-77
2022/10/03 12:04:51;;;;;;;13.07;2.90;;;;;;;;;;4977914;28;20042;-78
2022/10/03 12:10:38;;;;;;;6.45;1.83;;;;;;;;;;4956682;28;20065;-78
2022/10/03 12:13:07;;;;;;;10.45;2.30;;;;;;;;;;4958268;28;20505;-78
2022/10/03 12:15:37;;;;;;;12.52;2.00;;;;;;;;;;4962843;28;20137;-77
2022/10/03 12:18:05;;;;;;;9.48;1.70;;;;;;;;;;4960509;28;20035;-77
2022/10/03 12:20:37;;;;;;;7.57;2.13;;;;;;;;;;4957022;28;20030;-77
2022/10/03 12:23:09;;;;;;;10.25;1.90;;;;;;;;;;4957027;28;20102;-78
2022/10/03 12:25:37;;;;;;;7.93;1.95;;;;;;;;;;4957465;28;20389;-78
2022/10/03 12:28:03;;;;;;;6.43;1.95;;;;;;;;;;4957625;28;20509;-78
2022/10/03 12:30:50;;;;;;;6.82;2.03;;;;;;;;;;4957141;28;20031;-78
2022/10/03 12:33:28;;;;;;;6.32;1.85;;;;;;;;;;4956161;28;20027;-77
2022/10/03 12:36:09;;;;;;;10.10;1.85;;;;;;;;;;4957129;28;20468;-78
2022/10/03 12:38:41;;;;;;;8.55;2.35;;;;;;;;;;4956747;28;20019;-77
2022/10/03 12:41:15;;;;;;;8.82;2.33;;;;;;;;;;4956953;28;20050;-78
2022/10/03 12:44:04;;;;;;;12.30;2.38;;;;;;;;;;4956562;28;20027;-77
2022/10/03 12:46:59;;;;;;;7.35;2.05;;;;;;;;;;4956504;28;20019;-78
2022/10/03 12:49:42;;;;;;;8.43;2.22;;;;;;;;;;4903953;28;20044;-77
2022/10/03 12:52:17;;;;;;;5.80;1.83;;;;;;;;;;4956395;28;20090;-78
2022/10/03 12:54:47;;;;;;;9.52;1.90;;;;;;;;;;4956361;28;20122;-77
2022/10/03 12:57:32;;;;;;;7.18;2.17;;;;;;;;;;4956501;28;20035;-77
2022/10/03 13:00:06;;;;;;;10.75;2.47;;;;;;;;;;4962143;28;20054;-78
2022/10/03 13:02:36;;;;;;;11.30;2.30;;;;;;;;;;4967480;28;20058;-78
2022/10/03 13:05:06;;;;;;;12.57;2.72;;;;;;;;;;4956702;28;20524;-78
2022/10/03 13:07:39;;;;;;;8.85;2.30;;;;;;;;;;4968424;28;20374;-78
2022/10/03 13:10:18;;;;;;;17.98;2.63;;;;;;;;;;4956969;28;20042;-77
2022/10/03 13:13:01;;;;;;;13.07;4.25;;;;;;;;;;4955978;28;20390;-78
2022/10/03 13:15:30;;;;;;;6.38;2.13;;;;;;;;;;4955776;28;20042;-76
2022/10/03 13:17:59;;;;;;;12.23;2.22;;;;;;;;;;4955079;28;20043;-77
2022/10/03 13:20:35;;;;;;;13.55;1.67;;;;;;;;;;4955608;28;20031;-77
2022/10/03 13:23:22;;;;;;;14.55;2.20;;;;;;;;;;4955642;28;20031;-77
2022/10/03 13:26:08;;;;;;;6.88;1.92;;;;;;;;;;4955668;28;20023;-78
2022/10/03 13:28:34;;;;;;;7.38;1.83;;;;;;;;;;4958441;28;20018;-78
2022/10/03 13:31:27;;;;;;;5.13;1.75;;;;;;;;;;4954314;28;20397;-77
2022/10/03 13:33:59;;;;;;;10.52;2.10;;;;;;;;;;4962077;28;20039;-77
2022/10/03 13:36:43;;;;;;;7.35;1.83;;;;;;;;;;4957440;28;20019;-78
2022/10/03 13:39:28;;;;;;;9.85;2.17;;;;;;;;;;4965640;28;20031;-80
2022/10/03 13:42:09;;;;;;;7.53;2.25;;;;;;;;;;4973156;28;20486;-79
2022/10/03 13:44:47;;;;;;;9.02;2.03;;;;;;;;;;4970519;28;20378;-77
2022/10/03 13:47:15;;;;;;;10.68;3.03;;;;;;;;;;4982182;28;20038;-78
2022/10/03 13:49:48;;;;;;;9.10;2.60;;;;;;;;;;4965469;28;20035;-79
2022/10/03 13:52:17;;;;;;;14.50;2.45;;;;;;;;;;4958942;28;20058;-80
2022/10/03 13:54:49;;;;;;;16.60;3.00;;;;;;;;;;4955283;28;20653;-78
2022/10/03 13:57:20;;;;;;;9.25;1.88;;;;;;;;;;4954031;28;20035;-77
2022/10/03 13:59:47;;;;;;;7.15;1.88;;;;;;;;;;4956723;28;20027;-79
2022/10/03 14:02:13;;;;;;;8.70;2.33;;;;;;;;;;4963921;28;20031;-77
2022/10/03 14:04:53;;;;;;;8.80;2.10;;;;;;;;;;4956377;28;20504;-77
2022/10/03 14:07:25;;;;;;;9.80;2.10;;;;;;;;;;4963713;28;20478;-76
2022/10/03 14:09:59;;;;;;;8.40;2.22;;;;;;;;;;4954780;28;20081;-77
2022/10/03 14:12:39;;;;;;;7.38;1.77;;;;;;;;;;4954696;28;20511;-77
2022/10/03 14:15:05;;;;;;;10.68;2.47;;;;;;;;;;4954587;28;20122;-77
2022/10/03 14:17:49;;;;;;;9.95;2.50;;;;;;;;;;4954161;28;20042;-78
2022/10/03 14:20:22;;;;;;;9.50;1.85;;;;;;;;;;4961512;28;20031;-78
2022/10/03 14:22:53;;;;;;;8.02;1.90;;;;;;;;;;4959456;28;20030;-77
2022/10/03 14:25:19;;;;;;;11.00;2.17;;;;;;;;;;4954408;28;20027;-77
2022/10/03 14:27:48;;;;;;;7.40;1.50;;;;;;;;;;4953925;28;20049;-78
2022/10/03 14:30:16;;;;;;;15.88;3.03;;;;;;;;;;4954312;28;20028;-76
2022/10/03 14:32:49;;;;;;;8.73;1.75;;;;;;;;;;4954603;28;20027;-78
2022/10/03 14:35:28;;;;;;;10.25;2.70;;;;;;;;;;4961094;28;20385;-78
2022/10/03 14:38:02;;;;;;;11.93;2.33;;;;;;;;;;4958444;28;20034;-77
2022/10/03 14:40:57;;;;;;;10.52;2.45;;;;;;;;;;4954053;28;20027;-77
2022/10/03 14:43:23;;;;;;;11.60;2.30;;;;;;;;;;4942364;28;20122;-78
2022/10/03 14:45:51;;;;;;;9.10;2.50;;;;;;;;;;4955890;28;20513;-77
2022/10/03 14:48:22;;;;;;;11.82;4.95;;;;;;;;;;4954028;28;20024;-78
2022/10/03 14:50:51;;;;;;;6.93;2.60;;;;;;;;;;4954284;28;20497;-77
2022/10/03 14:53:19;;;;;;;6.47;1.65;;;;;;;;;;4954242;28;20255;-77
2022/10/03 14:55:51;;;;;;;10.68;2.20;;;;;;;;;;4954421;28;20128;-77
2022/10/03 14:58:19;;;;;;;5.22;1.38;;;;;;;;;;4953931;28;20400;-77
2022/10/03 15:00:47;;;;;;;13.35;2.00;;;;;;;;;;4962104;28;20031;-77
2022/10/03 15:03:13;;;;;;;5.88;2.00;;;;;;;;;;4952340;28;20027;-76
2022/10/03 15:05:50;;;;;;;11.77;2.08;;;;;;;;;;4953849;28;20133;-78
2022/10/03 15:08:17;;;;;;;7.53;1.77;;;;;;;;;;4953350;28;20022;-78
2022/10/03 15:10:44;;;;;;;4.45;1.38;;;;;;;;;;4955056;28;20045;-79
2022/10/03 15:13:12;;;;;;;9.35;2.58;;;;;;;;;;4964137;28;20027;-78
2022/10/03 15:15:40;;;;;;;10.25;1.77;;;;;;;;;;4955636;28;20031;-77
2022/10/03 15:18:07;;;;;;;8.60;2.05;;;;;;;;;;4980091;28;20280;-78
2022/10/03 15:20:37;;;;;;;10.15;2.03;;;;;;;;;;4966972;28;20034;-77
2022/10/03 15:23:05;;;;;;;7.57;1.52;;;;;;;;;;4956909;28;20041;-77
2022/10/03 15:25:36;;;;;;;5.72;1.35;;;;;;;;;;4954205;28;20030;-76
2022/10/03 15:28:08;;;;;;;8.60;2.22;;;;;;;;;;4953707;28;20027;-76
2022/10/03 15:30:36;;;;;;;5.03;1.80;;;;;;;;;;4972089;28;20556;-76
2022/10/03 15:33:20;;;;;;;5.28;1.77;;;;;;;;;;4957240;28;20074;-76
2022/10/03 15:35:51;;;;;;;7.22;2.88;;;;;;;;;;4953630;28;20086;-75
2022/10/03 15:38:22;;;;;;;11.93;3.47;;;;;;;;;;4957559;28;20027;-75
2022/10/03 15:40:48;;;;;;;6.05;1.33;;;;;;;;;;4961820;28;20059;-76
2022/10/03 15:43:23;;;;;;;9.15;2.20;;;;;;;;;;4953800;28;20065;-76
2022/10/03 15:45:51;;;;;;;7.95;2.00;;;;;;;;;;4952564;28;20078;-77
2022/10/03 15:48:20;;;;;;;10.82;3.13;;;;;;;;;;4953409;28;20070;-77
2022/10/03 15:50:50;;;;;;;7.35;3.17;;;;;;;;;;4955633;28;20408;-77
2022/10/03 15:53:24;;;;;;;14.73;4.65;;;;;;;;;;4961932;28;20528;-76
2022/10/03 15:55:53;;;;;;;18.17;6.65;;;;;;;;;;4964749;28;20038;-77
2022/10/03 15:58:25;;;;;;;31.50;13.13;;;;;;;;;;4956821;28;20444;-76
2022/10/03 16:01:03;;;;;;;14.68;6.90;;;;;;;;;;4968911;28;20069;-76
2022/10/03 16:03:35;;;;;;;12.80;2.53;;;;;;;;;;4970516;28;20122;-76
2022/10/03 16:06:01;;;;;;;8.07;1.90;;;;;;;;;;4961194;28;20029;-76
2022/10/03 16:08:29;;;;;;;7.10;2.28;;;;;;;;;;4980307;28;20098;-77
2022/10/03 16:10:58;;;;;;;7.40;2.25;;;;;;;;;;4957110;28;20030;-77
2022/10/03 16:13:33;;;;;;;5.25;1.83;;;;;;;;;;4956784;28;20051;-77
2022/10/03 16:16:06;;;;;;;8.95;2.50;;;;;;;;;;4957263;28;20057;-77
2022/10/03 16:18:52;;;;;;;8.73;2.35;;;;;;;;;;4961625;28;20636;-77
2022/10/03 16:21:26;;;;;;;12.65;1.77;;;;;;;;;;4960830;28;20675;-77
2022/10/03 16:23:55;;;;;;;14.32;3.25;;;;;;;;;;4957125;28;20024;-77
2022/10/03 16:26:23;;;;;;;8.75;2.65;;;;;;;;;;4956795;28;20434;-76
2022/10/03 16:28:49;;;;;;;9.98;3.10;;;;;;;;;;4956305;28;20478;-78
2022/10/03 16:31:27;;;;;;;9.57;2.60;;;;;;;;;;4970972;28;20081;-78
2022/10/03 16:33:59;;;;;;;9.90;2.70;;;;;;;;;;4956649;28;20011;-77
2022/10/03 16:36:25;;;;;;;8.05;2.25;;;;;;;;;;4956432;28;20027;-77
2022/10/03 16:39:03;;;;;;;9.30;2.42;;;;;;;;;;4954970;28;20126;-76